sensor_id;sensor_type;location;lat;lon;timestamp;P1;P2;P0
62631;PMS5003;48703;51.248;-0.546;2023-06-22T00:02:55;9.83;8.49;
62631;PMS5003;48703;51.248;-0.546;2023-06-22T00:05:57;12.83;11.93;
62631;PMS5003;48703;51.248;-0.546;2023-06-22T00:08:58;11.23;9.57;
62631;PMS5003;48703;51.248;-0.546;2023-06-22T00:11:59;10.11;9.09;
62631;PMS5003;48703;51.248;-0.546;2023-06-22T00:15:01;12.96;12.36;
62631;PMS5003;48703;51.248;-0.546;2023-06-22T00:18:02;10.59;9.84;
62631;PMS5003;48703;51.248;-0.546;2023-06-22T00:21:03;10.58;9.94;
62631;PMS5003;48703;51.248;-0.546;2023-06-22T00:24:05;11.50;9.39;
62631;PMS5003;48703;51.248;-0.546;2023-06-22T00:27:06;10.09;9.01;
62631;PMS5003;48703;51.248;-0.546;2023-06-22T00:30:08;13.68;10.96;
62631;PMS5003;48703;51.248;-0.546;2023-06-22T00:33:09;9.91;9.66;
62631;PMS5003;48703;51.248;-0.546;2023-06-22T00:36:10;9.36;9.13;
62631;PMS5003;48703;51.248;-0.546;2023-06-22T00:39:12;10.53;10.53;
62631;PMS5003;48703;51.248;-0.546;2023-06-22T00:42:13;9.49;9.44;
62631;PMS5003;48703;51.248;-0.546;2023-06-22T00:45:14;10.97;10.16;
62631;PMS5003;48703;51.248;-0.546;2023-06-22T00:48:16;10.51;9.96;
62631;PMS5003;48703;51.248;-0.546;2023-06-22T00:51:17;11.86;11.26;
62631;PMS5003;48703;51.248;-0.546;2023-06-22T00:54:19;11.97;10.40;
62631;PMS5003;48703;51.248;-0.546;2023-06-22T00:57:20;12.53;11.79;
62631;PMS5003;48703;51.248;-0.546;2023-06-22T01:00:22;9.60;9.13;
62631;PMS5003;48703;51.248;-0.546;2023-06-22T01:03:23;10.64;9.70;
62631;PMS5003;48703;51.248;-0.546;2023-06-22T01:06:26;10.66;9.84;
62631;PMS5003;48703;51.248;-0.546;2023-06-22T01:09:27;11.21;10.73;
62631;PMS5003;48703;51.248;-0.546;2023-06-22T01:12:28;12.41;11.09;
62631;PMS5003;48703;51.248;-0.546;2023-06-22T01:15:30;9.70;9.31;
62631;PMS5003;48703;51.248;-0.546;2023-06-22T01:18:31;10.79;10.30;
62631;PMS5003;48703;51.248;-0.546;2023-06-22T01:21:32;10.39;9.71;
62631;PMS5003;48703;51.248;-0.546;2023-06-22T01:24:37;9.80;9.36;
62631;PMS5003;48703;51.248;-0.546;2023-06-22T01:27:40;12.21;10.93;
62631;PMS5003;48703;51.248;-0.546;2023-06-22T01:30:36;13.74;10.71;
62631;PMS5003;48703;51.248;-0.546;2023-06-22T01:33:40;12.04;10.24;
62631;PMS5003;48703;51.248;-0.546;2023-06-22T01:36:38;11.54;11.33;
62631;PMS5003;48703;51.248;-0.546;2023-06-22T01:39:39;11.36;11.16;
62631;PMS5003;48703;51.248;-0.546;2023-06-22T01:42:40;12.24;10.97;
62631;PMS5003;48703;51.248;-0.546;2023-06-22T01:45:41;12.26;11.35;
62631;PMS5003;48703;51.248;-0.546;2023-06-22T01:48:43;11.64;11.07;
62631;PMS5003;48703;51.248;-0.546;2023-06-22T01:51:44;11.74;9.54;
62631;PMS5003;48703;51.248;-0.546;2023-06-22T01:54:46;9.60;8.96;
62631;PMS5003;48703;51.248;-0.546;2023-06-22T01:57:47;8.90;8.77;
62631;PMS5003;48703;51.248;-0.546;2023-06-22T02:00:50;12.06;9.46;
62631;PMS5003;48703;51.248;-0.546;2023-06-22T02:03:50;10.16;8.94;
62631;PMS5003;48703;51.248;-0.546;2023-06-22T02:06:53;9.29;8.96;
62631;PMS5003;48703;51.248;-0.546;2023-06-22T02:09:53;9.81;8.96;
62631;PMS5003;48703;51.248;-0.546;2023-06-22T02:12:54;11.96;10.87;
62631;PMS5003;48703;51.248;-0.546;2023-06-22T02:15:55;11.69;11.01;
62631;PMS5003;48703;51.248;-0.546;2023-06-22T02:18:57;10.21;10.13;
62631;PMS5003;48703;51.248;-0.546;2023-06-22T02:21:58;12.10;9.84;
62631;PMS5003;48703;51.248;-0.546;2023-06-22T02:25:00;11.23;10.93;
62631;PMS5003;48703;51.248;-0.546;2023-06-22T02:28:01;12.26;10.97;
62631;PMS5003;48703;51.248;-0.546;2023-06-22T02:31:03;11.73;10.36;
62631;PMS5003;48703;51.248;-0.546;2023-06-22T02:34:04;9.86;9.60;
62631;PMS5003;48703;51.248;-0.546;2023-06-22T02:37:05;12.01;10.94;
62631;PMS5003;48703;51.248;-0.546;2023-06-22T02:40:07;12.80;11.88;
62631;PMS5003;48703;51.248;-0.546;2023-06-22T02:43:08;12.33;10.71;
62631;PMS5003;48703;51.248;-0.546;2023-06-22T02:46:10;12.30;10.67;
62631;PMS5003;48703;51.248;-0.546;2023-06-22T02:49:11;12.36;11.74;
62631;PMS5003;48703;51.248;-0.546;2023-06-22T02:52:13;12.93;11.17;
62631;PMS5003;48703;51.248;-0.546;2023-06-22T02:55:14;11.07;10.97;
62631;PMS5003;48703;51.248;-0.546;2023-06-22T02:58:15;15.73;13.14;
62631;PMS5003;48703;51.248;-0.546;2023-06-22T03:01:17;12.53;11.10;
62631;PMS5003;48703;51.248;-0.546;2023-06-22T03:04:18;9.70;9.64;
62631;PMS5003;48703;51.248;-0.546;2023-06-22T03:07:20;12.90;11.03;
62631;PMS5003;48703;51.248;-0.546;2023-06-22T03:10:21;13.94;12.41;
62631;PMS5003;48703;51.248;-0.546;2023-06-22T03:13:23;13.20;12.39;
62631;PMS5003;48703;51.248;-0.546;2023-06-22T03:16:24;12.16;10.86;
62631;PMS5003;48703;51.248;-0.546;2023-06-22T03:19:25;12.60;10.64;
62631;PMS5003;48703;51.248;-0.546;2023-06-22T03:22:27;12.43;10.71;
62631;PMS5003;48703;51.248;-0.546;2023-06-22T03:25:28;12.80;12.19;
62631;PMS5003;48703;51.248;-0.546;2023-06-22T03:28:29;12.10;11.40;
62631;PMS5003;48703;51.248;-0.546;2023-06-22T03:31:31;14.23;12.71;
62631;PMS5003;48703;51.248;-0.546;2023-06-22T03:34:32;12.61;10.94;
62631;PMS5003;48703;51.248;-0.546;2023-06-22T03:37:34;11.59;9.57;
62631;PMS5003;48703;51.248;-0.546;2023-06-22T03:40:35;13.01;11.26;
62631;PMS5003;48703;51.248;-0.546;2023-06-22T03:43:36;12.04;10.80;
62631;PMS5003;48703;51.248;-0.546;2023-06-22T03:46:38;12.86;11.64;
62631;PMS5003;48703;51.248;-0.546;2023-06-22T03:49:40;11.89;11.03;
62631;PMS5003;48703;51.248;-0.546;2023-06-22T03:52:41;11.91;10.74;
62631;PMS5003;48703;51.248;-0.546;2023-06-22T03:55:47;11.84;10.59;
62631;PMS5003;48703;51.248;-0.546;2023-06-22T03:58:44;11.13;9.99;
62631;PMS5003;48703;51.248;-0.546;2023-06-22T04:01:46;10.50;9.20;
62631;PMS5003;48703;51.248;-0.546;2023-06-22T04:04:47;11.61;10.36;
62631;PMS5003;48703;51.248;-0.546;2023-06-22T04:07:48;10.60;9.90;
62631;PMS5003;48703;51.248;-0.546;2023-06-22T04:10:50;8.50;8.33;
62631;PMS5003;48703;51.248;-0.546;2023-06-22T04:13:52;9.97;9.63;
62631;PMS5003;48703;51.248;-0.546;2023-06-22T04:16:53;10.64;9.41;
62631;PMS5003;48703;51.248;-0.546;2023-06-22T04:19:54;11.97;10.14;
62631;PMS5003;48703;51.248;-0.546;2023-06-22T04:22:56;10.44;9.77;
62631;PMS5003;48703;51.248;-0.546;2023-06-22T04:25:57;11.21;9.50;
62631;PMS5003;48703;51.248;-0.546;2023-06-22T04:28:59;12.19;10.89;
62631;PMS5003;48703;51.248;-0.546;2023-06-22T04:32:01;12.94;9.49;
62631;PMS5003;48703;51.248;-0.546;2023-06-22T04:35:02;11.96;10.62;
62631;PMS5003;48703;51.248;-0.546;2023-06-22T04:38:04;11.13;10.91;
62631;PMS5003;48703;51.248;-0.546;2023-06-22T04:41:05;11.87;9.59;
62631;PMS5003;48703;51.248;-0.546;2023-06-22T04:44:08;10.16;9.71;
62631;PMS5003;48703;51.248;-0.546;2023-06-22T04:47:08;11.36;10.24;
62631;PMS5003;48703;51.248;-0.546;2023-06-22T04:50:10;11.34;10.14;
62631;PMS5003;48703;51.248;-0.546;2023-06-22T04:53:11;9.93;9.91;
62631;PMS5003;48703;51.248;-0.546;2023-06-22T04:56:13;13.79;11.53;
62631;PMS5003;48703;51.248;-0.546;2023-06-22T04:59:14;12.23;11.01;
62631;PMS5003;48703;51.248;-0.546;2023-06-22T05:02:16;10.81;9.63;
62631;PMS5003;48703;51.248;-0.546;2023-06-22T05:05:17;10.30;8.76;
62631;PMS5003;48703;51.248;-0.546;2023-06-22T05:08:18;11.57;10.43;
62631;PMS5003;48703;51.248;-0.546;2023-06-22T05:11:20;12.23;9.76;
62631;PMS5003;48703;51.248;-0.546;2023-06-22T05:14:21;11.46;10.93;
62631;PMS5003;48703;51.248;-0.546;2023-06-22T05:17:23;9.86;9.60;
62631;PMS5003;48703;51.248;-0.546;2023-06-22T05:20:24;15.10;13.41;
62631;PMS5003;48703;51.248;-0.546;2023-06-22T05:23:26;11.61;11.10;
62631;PMS5003;48703;51.248;-0.546;2023-06-22T05:26:28;13.60;12.00;
62631;PMS5003;48703;51.248;-0.546;2023-06-22T05:29:28;16.16;14.68;
62631;PMS5003;48703;51.248;-0.546;2023-06-22T05:32:29;13.79;12.29;
62631;PMS5003;48703;51.248;-0.546;2023-06-22T05:35:31;13.10;12.06;
62631;PMS5003;48703;51.248;-0.546;2023-06-22T05:38:32;11.81;10.73;
62631;PMS5003;48703;51.248;-0.546;2023-06-22T05:41:33;20.17;18.72;
62631;PMS5003;48703;51.248;-0.546;2023-06-22T05:44:35;53.00;47.87;
62631;PMS5003;48703;51.248;-0.546;2023-06-22T05:47:36;23.20;21.30;
62631;PMS5003;48703;51.248;-0.546;2023-06-22T05:50:37;36.01;33.29;
62631;PMS5003;48703;51.248;-0.546;2023-06-22T05:53:38;42.96;42.17;
62631;PMS5003;48703;51.248;-0.546;2023-06-22T05:56:39;16.46;15.25;
62631;PMS5003;48703;51.248;-0.546;2023-06-22T05:59:40;14.59;12.23;
62631;PMS5003;48703;51.248;-0.546;2023-06-22T06:02:42;14.48;12.78;
62631;PMS5003;48703;51.248;-0.546;2023-06-22T06:05:43;15.42;12.90;
62631;PMS5003;48703;51.248;-0.546;2023-06-22T06:08:44;14.10;12.71;
62631;PMS5003;48703;51.248;-0.546;2023-06-22T06:11:46;17.36;14.52;
62631;PMS5003;48703;51.248;-0.546;2023-06-22T06:14:47;14.97;13.83;
62631;PMS5003;48703;51.248;-0.546;2023-06-22T06:17:49;14.84;13.73;
62631;PMS5003;48703;51.248;-0.546;2023-06-22T06:20:49;15.75;14.29;
62631;PMS5003;48703;51.248;-0.546;2023-06-22T06:23:51;14.07;12.61;
62631;PMS5003;48703;51.248;-0.546;2023-06-22T06:26:53;15.49;13.31;
62631;PMS5003;48703;51.248;-0.546;2023-06-22T06:29:54;16.64;14.45;
62631;PMS5003;48703;51.248;-0.546;2023-06-22T06:32:55;16.31;13.74;
62631;PMS5003;48703;51.248;-0.546;2023-06-22T06:35:56;14.56;11.90;
62631;PMS5003;48703;51.248;-0.546;2023-06-22T06:38:58;14.71;13.55;
62631;PMS5003;48703;51.248;-0.546;2023-06-22T06:41:59;19.01;15.03;
62631;PMS5003;48703;51.248;-0.546;2023-06-22T06:44:59;15.19;14.62;
62631;PMS5003;48703;51.248;-0.546;2023-06-22T06:48:00;16.59;15.06;
62631;PMS5003;48703;51.248;-0.546;2023-06-22T06:51:01;17.52;16.96;
62631;PMS5003;48703;51.248;-0.546;2023-06-22T06:54:02;15.70;14.11;
62631;PMS5003;48703;51.248;-0.546;2023-06-22T06:57:04;17.93;16.06;
62631;PMS5003;48703;51.248;-0.546;2023-06-22T07:00:06;19.97;15.11;
62631;PMS5003;48703;51.248;-0.546;2023-06-22T07:03:06;25.04;22.10;
62631;PMS5003;48703;51.248;-0.546;2023-06-22T07:06:07;16.39;14.23;
62631;PMS5003;48703;51.248;-0.546;2023-06-22T07:09:08;17.86;16.13;
62631;PMS5003;48703;51.248;-0.546;2023-06-22T07:12:09;16.07;15.64;
62631;PMS5003;48703;51.248;-0.546;2023-06-22T07:15:11;19.32;16.33;
62631;PMS5003;48703;51.248;-0.546;2023-06-22T07:18:12;15.89;14.01;
62631;PMS5003;48703;51.248;-0.546;2023-06-22T07:21:13;17.99;15.84;
62631;PMS5003;48703;51.248;-0.546;2023-06-22T07:24:14;18.83;17.90;
62631;PMS5003;48703;51.248;-0.546;2023-06-22T07:27:15;17.21;14.70;
62631;PMS5003;48703;51.248;-0.546;2023-06-22T07:30:17;20.56;17.80;
62631;PMS5003;48703;51.248;-0.546;2023-06-22T07:33:18;19.24;15.11;
62631;PMS5003;48703;51.248;-0.546;2023-06-22T07:36:19;17.63;15.73;
62631;PMS5003;48703;51.248;-0.546;2023-06-22T07:39:21;17.57;16.03;
62631;PMS5003;48703;51.248;-0.546;2023-06-22T07:42:22;19.07;17.10;
62631;PMS5003;48703;51.248;-0.546;2023-06-22T07:45:24;17.00;15.06;
62631;PMS5003;48703;51.248;-0.546;2023-06-22T07:48:25;16.47;15.33;
62631;PMS5003;48703;51.248;-0.546;2023-06-22T07:51:26;16.55;14.74;
62631;PMS5003;48703;51.248;-0.546;2023-06-22T07:54:28;17.41;16.20;
62631;PMS5003;48703;51.248;-0.546;2023-06-22T07:57:30;18.13;15.74;
62631;PMS5003;48703;51.248;-0.546;2023-06-22T08:00:30;16.13;13.77;
62631;PMS5003;48703;51.248;-0.546;2023-06-22T08:03:32;14.49;14.10;
62631;PMS5003;48703;51.248;-0.546;2023-06-22T08:06:33;20.31;16.16;
62631;PMS5003;48703;51.248;-0.546;2023-06-22T08:09:34;14.45;13.84;
62631;PMS5003;48703;51.248;-0.546;2023-06-22T08:12:36;14.99;13.17;
62631;PMS5003;48703;51.248;-0.546;2023-06-22T08:15:37;14.44;12.99;
62631;PMS5003;48703;51.248;-0.546;2023-06-22T08:18:39;15.47;14.56;
62631;PMS5003;48703;51.248;-0.546;2023-06-22T08:21:41;15.41;13.44;
62631;PMS5003;48703;51.248;-0.546;2023-06-22T08:24:42;14.13;12.79;
62631;PMS5003;48703;51.248;-0.546;2023-06-22T08:27:44;12.04;11.40;
62631;PMS5003;48703;51.248;-0.546;2023-06-22T08:30:45;14.03;13.20;
62631;PMS5003;48703;51.248;-0.546;2023-06-22T08:33:46;13.51;12.21;
62631;PMS5003;48703;51.248;-0.546;2023-06-22T08:36:48;13.60;13.34;
62631;PMS5003;48703;51.248;-0.546;2023-06-22T08:39:49;16.31;13.56;
62631;PMS5003;48703;51.248;-0.546;2023-06-22T08:42:50;14.44;13.53;
62631;PMS5003;48703;51.248;-0.546;2023-06-22T08:45:51;13.75;12.65;
62631;PMS5003;48703;51.248;-0.546;2023-06-22T08:48:52;12.39;11.09;
62631;PMS5003;48703;51.248;-0.546;2023-06-22T08:51:54;14.27;11.34;
62631;PMS5003;48703;51.248;-0.546;2023-06-22T08:54:55;14.57;12.37;
62631;PMS5003;48703;51.248;-0.546;2023-06-22T08:57:56;13.88;12.22;
62631;PMS5003;48703;51.248;-0.546;2023-06-22T09:00:58;12.10;11.24;
62631;PMS5003;48703;51.248;-0.546;2023-06-22T09:03:59;12.39;11.44;
62631;PMS5003;48703;51.248;-0.546;2023-06-22T09:07:01;12.23;10.51;
62631;PMS5003;48703;51.248;-0.546;2023-06-22T09:10:03;10.74;9.57;
62631;PMS5003;48703;51.248;-0.546;2023-06-22T09:13:04;13.59;11.99;
62631;PMS5003;48703;51.248;-0.546;2023-06-22T09:16:05;13.13;11.71;
62631;PMS5003;48703;51.248;-0.546;2023-06-22T09:19:06;11.41;9.30;
62631;PMS5003;48703;51.248;-0.546;2023-06-22T09:22:08;9.07;8.59;
62631;PMS5003;48703;51.248;-0.546;2023-06-22T09:25:09;9.31;8.77;
62631;PMS5003;48703;51.248;-0.546;2023-06-22T09:28:10;9.51;9.00;
62631;PMS5003;48703;51.248;-0.546;2023-06-22T09:31:12;8.29;7.49;
62631;PMS5003;48703;51.248;-0.546;2023-06-22T09:34:13;10.67;9.58;
62631;PMS5003;48703;51.248;-0.546;2023-06-22T09:37:14;9.40;8.70;
62631;PMS5003;48703;51.248;-0.546;2023-06-22T09:40:15;9.00;8.50;
62631;PMS5003;48703;51.248;-0.546;2023-06-22T09:43:17;9.71;9.22;
62631;PMS5003;48703;51.248;-0.546;2023-06-22T09:46:18;7.74;7.43;
62631;PMS5003;48703;51.248;-0.546;2023-06-22T09:49:19;9.14;8.01;
62631;PMS5003;48703;51.248;-0.546;2023-06-22T09:52:21;9.83;8.40;
62631;PMS5003;48703;51.248;-0.546;2023-06-22T09:55:22;9.40;8.00;
62631;PMS5003;48703;51.248;-0.546;2023-06-22T09:58:24;8.47;7.37;
62631;PMS5003;48703;51.248;-0.546;2023-06-22T10:01:25;7.81;7.41;
62631;PMS5003;48703;51.248;-0.546;2023-06-22T10:04:27;7.70;7.70;
62631;PMS5003;48703;51.248;-0.546;2023-06-22T10:07:28;9.49;7.86;
62631;PMS5003;48703;51.248;-0.546;2023-06-22T10:10:29;7.39;7.04;
62631;PMS5003;48703;51.248;-0.546;2023-06-22T10:13:30;6.74;6.19;
62631;PMS5003;48703;51.248;-0.546;2023-06-22T10:16:31;9.51;7.44;
62631;PMS5003;48703;51.248;-0.546;2023-06-22T10:19:33;8.07;7.53;
62631;PMS5003;48703;51.248;-0.546;2023-06-22T10:22:34;8.46;6.51;
62631;PMS5003;48703;51.248;-0.546;2023-06-22T10:25:36;6.59;6.06;
62631;PMS5003;48703;51.248;-0.546;2023-06-22T10:28:37;6.97;6.76;
62631;PMS5003;48703;51.248;-0.546;2023-06-22T10:31:38;6.37;6.16;
62631;PMS5003;48703;51.248;-0.546;2023-06-22T10:34:39;6.64;5.83;
62631;PMS5003;48703;51.248;-0.546;2023-06-22T10:37:42;6.66;5.13;
62631;PMS5003;48703;51.248;-0.546;2023-06-22T10:40:42;6.60;6.47;
62631;PMS5003;48703;51.248;-0.546;2023-06-22T10:43:44;7.64;7.34;
62631;PMS5003;48703;51.248;-0.546;2023-06-22T10:46:45;8.97;7.94;
62631;PMS5003;48703;51.248;-0.546;2023-06-22T10:49:46;8.37;8.23;
62631;PMS5003;48703;51.248;-0.546;2023-06-22T10:52:48;9.66;8.13;
62631;PMS5003;48703;51.248;-0.546;2023-06-22T10:55:49;7.79;6.79;
62631;PMS5003;48703;51.248;-0.546;2023-06-22T10:58:50;8.61;7.59;
62631;PMS5003;48703;51.248;-0.546;2023-06-22T11:01:52;8.21;8.07;
62631;PMS5003;48703;51.248;-0.546;2023-06-22T11:04:53;8.80;7.84;
62631;PMS5003;48703;51.248;-0.546;2023-06-22T11:07:55;8.49;8.06;
62631;PMS5003;48703;51.248;-0.546;2023-06-22T11:10:56;8.33;7.63;
62631;PMS5003;48703;51.248;-0.546;2023-06-22T11:13:57;7.23;6.67;
62631;PMS5003;48703;51.248;-0.546;2023-06-22T11:16:59;6.31;5.46;
62631;PMS5003;48703;51.248;-0.546;2023-06-22T11:20:00;7.97;7.63;
62631;PMS5003;48703;51.248;-0.546;2023-06-22T11:23:01;6.73;6.47;
62631;PMS5003;48703;51.248;-0.546;2023-06-22T11:26:03;8.33;7.34;
62631;PMS5003;48703;51.248;-0.546;2023-06-22T11:29:04;7.59;6.39;
62631;PMS5003;48703;51.248;-0.546;2023-06-22T11:32:06;8.36;7.31;
62631;PMS5003;48703;51.248;-0.546;2023-06-22T11:35:07;6.91;6.91;
62631;PMS5003;48703;51.248;-0.546;2023-06-22T11:38:08;7.40;6.53;
62631;PMS5003;48703;51.248;-0.546;2023-06-22T11:41:10;7.71;6.13;
62631;PMS5003;48703;51.248;-0.546;2023-06-22T11:44:11;7.21;6.19;
62631;PMS5003;48703;51.248;-0.546;2023-06-22T11:47:12;7.62;7.32;
62631;PMS5003;48703;51.248;-0.546;2023-06-22T11:50:13;6.79;6.14;
62631;PMS5003;48703;51.248;-0.546;2023-06-22T11:53:15;7.64;6.94;
62631;PMS5003;48703;51.248;-0.546;2023-06-22T11:56:16;7.79;7.79;
62631;PMS5003;48703;51.248;-0.546;2023-06-22T11:59:17;8.40;7.71;
62631;PMS5003;48703;51.248;-0.546;2023-06-22T12:02:18;8.99;7.62;
62631;PMS5003;48703;51.248;-0.546;2023-06-22T12:05:20;7.14;6.91;
62631;PMS5003;48703;51.248;-0.546;2023-06-22T12:08:21;9.17;8.29;
62631;PMS5003;48703;51.248;-0.546;2023-06-22T12:11:22;7.74;7.74;
62631;PMS5003;48703;51.248;-0.546;2023-06-22T12:14:23;7.64;7.64;
62631;PMS5003;48703;51.248;-0.546;2023-06-22T12:17:25;7.64;7.46;
62631;PMS5003;48703;51.248;-0.546;2023-06-22T12:20:26;11.76;9.99;
62631;PMS5003;48703;51.248;-0.546;2023-06-22T12:23:27;9.43;8.31;
62631;PMS5003;48703;51.248;-0.546;2023-06-22T12:26:29;10.01;8.31;
62631;PMS5003;48703;51.248;-0.546;2023-06-22T12:29:30;8.66;8.31;
62631;PMS5003;48703;51.248;-0.546;2023-06-22T12:32:32;9.36;9.06;
62631;PMS5003;48703;51.248;-0.546;2023-06-22T12:35:34;8.67;7.56;
62631;PMS5003;48703;51.248;-0.546;2023-06-22T12:38:35;8.64;7.90;
62631;PMS5003;48703;51.248;-0.546;2023-06-22T12:41:36;7.59;6.67;
62631;PMS5003;48703;51.248;-0.546;2023-06-22T12:44:38;8.17;8.17;
62631;PMS5003;48703;51.248;-0.546;2023-06-22T12:47:39;7.84;7.31;
62631;PMS5003;48703;51.248;-0.546;2023-06-22T12:50:40;9.00;7.90;
62631;PMS5003;48703;51.248;-0.546;2023-06-22T12:53:41;7.51;7.51;
62631;PMS5003;48703;51.248;-0.546;2023-06-22T12:56:43;8.34;7.70;
62631;PMS5003;48703;51.248;-0.546;2023-06-22T12:59:44;8.67;8.16;
62631;PMS5003;48703;51.248;-0.546;2023-06-22T13:02:45;9.06;8.53;
62631;PMS5003;48703;51.248;-0.546;2023-06-22T13:05:46;9.71;9.55;
62631;PMS5003;48703;51.248;-0.546;2023-06-22T13:08:48;7.74;7.63;
62631;PMS5003;48703;51.248;-0.546;2023-06-22T13:11:49;8.96;7.84;
62631;PMS5003;48703;51.248;-0.546;2023-06-22T13:14:50;10.53;8.33;
62631;PMS5003;48703;51.248;-0.546;2023-06-22T13:17:52;8.67;7.69;
62631;PMS5003;48703;51.248;-0.546;2023-06-22T13:20:53;8.86;8.86;
62631;PMS5003;48703;51.248;-0.546;2023-06-22T13:23:54;10.96;8.96;
62631;PMS5003;48703;51.248;-0.546;2023-06-22T13:26:55;9.31;8.39;
62631;PMS5003;48703;51.248;-0.546;2023-06-22T13:29:57;9.19;8.67;
62631;PMS5003;48703;51.248;-0.546;2023-06-22T13:32:58;8.94;8.00;
62631;PMS5003;48703;51.248;-0.546;2023-06-22T13:35:59;10.74;9.24;
62631;PMS5003;48703;51.248;-0.546;2023-06-22T13:39:00;9.19;7.69;
62631;PMS5003;48703;51.248;-0.546;2023-06-22T13:42:02;8.86;6.71;
62631;PMS5003;48703;51.248;-0.546;2023-06-22T13:45:03;8.23;7.99;
62631;PMS5003;48703;51.248;-0.546;2023-06-22T13:48:05;8.26;8.24;
62631;PMS5003;48703;51.248;-0.546;2023-06-22T13:51:06;10.13;8.86;
62631;PMS5003;48703;51.248;-0.546;2023-06-22T13:54:07;8.09;7.87;
62631;PMS5003;48703;51.248;-0.546;2023-06-22T13:57:08;9.36;8.59;
62631;PMS5003;48703;51.248;-0.546;2023-06-22T14:00:10;8.44;7.97;
62631;PMS5003;48703;51.248;-0.546;2023-06-22T14:03:11;6.67;5.93;
62631;PMS5003;48703;51.248;-0.546;2023-06-22T14:06:12;8.07;7.51;
62631;PMS5003;48703;51.248;-0.546;2023-06-22T14:09:13;11.51;9.41;
62631;PMS5003;48703;51.248;-0.546;2023-06-22T14:12:15;8.44;6.64;
62631;PMS5003;48703;51.248;-0.546;2023-06-22T14:15:16;7.53;7.53;
62631;PMS5003;48703;51.248;-0.546;2023-06-22T14:18:17;8.74;8.43;
62631;PMS5003;48703;51.248;-0.546;2023-06-22T14:21:19;7.46;7.29;
62631;PMS5003;48703;51.248;-0.546;2023-06-22T14:24:20;8.70;7.73;
62631;PMS5003;48703;51.248;-0.546;2023-06-22T14:27:21;7.83;7.17;
62631;PMS5003;48703;51.248;-0.546;2023-06-22T14:30:22;9.63;8.07;
62631;PMS5003;48703;51.248;-0.546;2023-06-22T14:33:24;8.09;7.30;
62631;PMS5003;48703;51.248;-0.546;2023-06-22T14:36:26;7.20;6.99;
62631;PMS5003;48703;51.248;-0.546;2023-06-22T14:39:27;8.00;7.23;
62631;PMS5003;48703;51.248;-0.546;2023-06-22T14:42:28;6.33;5.83;
62631;PMS5003;48703;51.248;-0.546;2023-06-22T14:45:30;7.30;6.70;
62631;PMS5003;48703;51.248;-0.546;2023-06-22T14:48:31;7.89;7.00;
62631;PMS5003;48703;51.248;-0.546;2023-06-22T14:51:32;8.53;7.11;
62631;PMS5003;48703;51.248;-0.546;2023-06-22T14:54:33;6.41;6.41;
62631;PMS5003;48703;51.248;-0.546;2023-06-22T14:57:35;6.71;6.20;
62631;PMS5003;48703;51.248;-0.546;2023-06-22T15:00:37;8.13;7.63;
62631;PMS5003;48703;51.248;-0.546;2023-06-22T15:03:38;7.06;6.80;
62631;PMS5003;48703;51.248;-0.546;2023-06-22T15:06:39;7.77;6.84;
62631;PMS5003;48703;51.248;-0.546;2023-06-22T15:09:40;6.91;6.44;
62631;PMS5003;48703;51.248;-0.546;2023-06-22T15:12:42;7.93;7.37;
62631;PMS5003;48703;51.248;-0.546;2023-06-22T15:15:43;7.83;6.81;
62631;PMS5003;48703;51.248;-0.546;2023-06-22T15:18:44;7.94;7.06;
62631;PMS5003;48703;51.248;-0.546;2023-06-22T15:21:46;7.89;6.63;
62631;PMS5003;48703;51.248;-0.546;2023-06-22T15:24:47;6.56;6.17;
62631;PMS5003;48703;51.248;-0.546;2023-06-22T15:27:48;7.31;6.79;
62631;PMS5003;48703;51.248;-0.546;2023-06-22T15:30:49;7.40;6.57;
62631;PMS5003;48703;51.248;-0.546;2023-06-22T15:33:51;6.60;5.73;
62631;PMS5003;48703;51.248;-0.546;2023-06-22T15:36:52;6.30;6.10;
62631;PMS5003;48703;51.248;-0.546;2023-06-22T15:39:53;6.34;5.87;
62631;PMS5003;48703;51.248;-0.546;2023-06-22T15:42:54;7.17;6.57;
62631;PMS5003;48703;51.248;-0.546;2023-06-22T15:45:55;7.77;6.96;
62631;PMS5003;48703;51.248;-0.546;2023-06-22T15:48:57;7.33;6.73;
62631;PMS5003;48703;51.248;-0.546;2023-06-22T15:51:58;7.43;6.49;
62631;PMS5003;48703;51.248;-0.546;2023-06-22T15:54:59;7.07;6.54;
62631;PMS5003;48703;51.248;-0.546;2023-06-22T15:58:01;6.56;6.21;
62631;PMS5003;48703;51.248;-0.546;2023-06-22T16:01:02;6.10;5.31;
62631;PMS5003;48703;51.248;-0.546;2023-06-22T16:04:03;7.41;7.20;
62631;PMS5003;48703;51.248;-0.546;2023-06-22T16:07:05;6.70;6.70;
62631;PMS5003;48703;51.248;-0.546;2023-06-22T16:10:06;7.59;7.37;
62631;PMS5003;48703;51.248;-0.546;2023-06-22T16:13:07;6.73;6.43;
62631;PMS5003;48703;51.248;-0.546;2023-06-22T16:16:08;7.50;6.43;
62631;PMS5003;48703;51.248;-0.546;2023-06-22T16:19:09;5.89;5.89;
62631;PMS5003;48703;51.248;-0.546;2023-06-22T16:22:11;7.86;7.43;
62631;PMS5003;48703;51.248;-0.546;2023-06-22T16:25:12;6.13;5.70;
62631;PMS5003;48703;51.248;-0.546;2023-06-22T16:28:13;7.37;6.73;
62631;PMS5003;48703;51.248;-0.546;2023-06-22T16:31:14;7.40;6.84;
62631;PMS5003;48703;51.248;-0.546;2023-06-22T16:34:16;7.29;6.73;
62631;PMS5003;48703;51.248;-0.546;2023-06-22T16:37:17;6.66;6.66;
62631;PMS5003;48703;51.248;-0.546;2023-06-22T16:40:18;6.09;6.09;
62631;PMS5003;48703;51.248;-0.546;2023-06-22T16:43:19;6.09;5.14;
62631;PMS5003;48703;51.248;-0.546;2023-06-22T16:46:21;6.74;6.74;
62631;PMS5003;48703;51.248;-0.546;2023-06-22T16:49:22;6.27;5.67;
62631;PMS5003;48703;51.248;-0.546;2023-06-22T16:52:23;4.73;4.73;
62631;PMS5003;48703;51.248;-0.546;2023-06-22T16:55:24;6.20;6.09;
62631;PMS5003;48703;51.248;-0.546;2023-06-22T16:58:26;5.86;4.94;
62631;PMS5003;48703;51.248;-0.546;2023-06-22T17:01:27;7.11;5.99;
62631;PMS5003;48703;51.248;-0.546;2023-06-22T17:04:29;6.14;5.93;
62631;PMS5003;48703;51.248;-0.546;2023-06-22T17:07:29;6.47;5.83;
62631;PMS5003;48703;51.248;-0.546;2023-06-22T17:10:31;6.69;5.49;
62631;PMS5003;48703;51.248;-0.546;2023-06-22T17:13:33;6.56;5.96;
62631;PMS5003;48703;51.248;-0.546;2023-06-22T17:16:33;5.87;5.87;
62631;PMS5003;48703;51.248;-0.546;2023-06-22T17:19:35;4.91;4.91;
62631;PMS5003;48703;51.248;-0.546;2023-06-22T17:22:36;6.26;6.26;
62631;PMS5003;48703;51.248;-0.546;2023-06-22T17:25:37;6.87;5.33;
62631;PMS5003;48703;51.248;-0.546;2023-06-22T17:28:46;5.51;5.07;
62631;PMS5003;48703;51.248;-0.546;2023-06-22T17:31:40;7.67;5.20;
62631;PMS5003;48703;51.248;-0.546;2023-06-22T17:34:41;5.44;4.89;
62631;PMS5003;48703;51.248;-0.546;2023-06-22T17:37:50;6.40;5.54;
62631;PMS5003;48703;51.248;-0.546;2023-06-22T17:40:43;5.76;5.76;
62631;PMS5003;48703;51.248;-0.546;2023-06-22T17:43:45;6.70;5.37;
62631;PMS5003;48703;51.248;-0.546;2023-06-22T17:46:46;4.77;4.56;
62631;PMS5003;48703;51.248;-0.546;2023-06-22T17:49:47;5.84;5.71;
62631;PMS5003;48703;51.248;-0.546;2023-06-22T17:52:49;5.61;5.43;
62631;PMS5003;48703;51.248;-0.546;2023-06-22T17:55:51;6.91;6.26;
62631;PMS5003;48703;51.248;-0.546;2023-06-22T17:58:51;6.80;6.80;
62631;PMS5003;48703;51.248;-0.546;2023-06-22T18:01:52;8.13;7.10;
62631;PMS5003;48703;51.248;-0.546;2023-06-22T18:04:56;6.14;5.59;
62631;PMS5003;48703;51.248;-0.546;2023-06-22T18:07:56;8.39;6.94;
62631;PMS5003;48703;51.248;-0.546;2023-06-22T18:10:56;5.66;5.49;
62631;PMS5003;48703;51.248;-0.546;2023-06-22T18:13:57;7.86;7.27;
62631;PMS5003;48703;51.248;-0.546;2023-06-22T18:16:58;4.94;4.41;